Time;durP1;ratioP1;P1;durP2;ratioP2;P2;SDS_P1;SDS_P2;PMS_P1;PMS_P2;Temp;Humidity;BMP_temperature;BMP_pressure;BME280_temperature;BME280_humidity;BME280_pressure;Samples;Min_cycle;Max_cycle;Signal;HPM_P1;HPM_P2
2021/05/20 00:00:48;;;;;;;20.33;11.05;;;7.50;99.90;;;;;;5061522;28;20029;-88
2021/05/20 00:03:14;;;;;;;23.15;11.18;;;7.70;99.90;;;;;;5049928;28;20058;-87
2021/05/20 00:05:40;;;;;;;21.23;10.80;;;7.40;99.90;;;;;;5065745;28;20559;-87
2021/05/20 00:08:05;;;;;;;22.25;11.20;;;7.60;99.90;;;;;;5055535;28;20021;-86
2021/05/20 00:10:31;;;;;;;22.65;11.60;;;7.60;99.90;;;;;;5042283;28;20029;-87
2021/05/20 00:12:57;;;;;;;27.23;12.30;;;7.60;99.90;;;;;;5048271;28;20017;-88
2021/05/20 00:15:22;;;;;;;22.45;10.95;;;8.50;99.90;;;;;;5068954;28;20074;-87
2021/05/20 00:17:48;;;;;;;20.70;11.10;;;7.50;99.90;;;;;;5057317;28;20377;-88
2021/05/20 00:20:14;;;;;;;23.45;11.63;;;7.50;99.90;;;;;;5051635;28;20013;-88
2021/05/20 00:22:40;;;;;;;21.63;11.85;;;7.50;99.90;;;;;;5076089;28;20550;-88
2021/05/20 00:25:06;;;;;;;24.20;10.02;;;7.40;99.90;;;;;;5044059;28;20119;-87
2021/05/20 00:27:31;;;;;;;16.90;9.73;;;7.50;99.90;;;;;;5035802;28;20490;-87
2021/05/20 00:29:57;;;;;;;23.70;11.45;;;7.40;99.90;;;;;;5046679;28;20024;-87
2021/05/20 00:32:23;;;;;;;24.15;11.55;;;7.40;99.90;;;;;;5055170;28;20537;-86
2021/05/20 00:34:49;;;;;;;19.20;10.20;;;7.40;99.90;;;;;;5055701;28;20119;-87
2021/05/20 00:37:14;;;;;;;101.68;13.57;;;7.30;99.90;;;;;;5061682;28;20434;-86
2021/05/20 00:39:40;;;;;;;23.40;12.18;;;7.30;99.90;;;;;;5043191;28;20074;-87
2021/05/20 00:42:12;;;;;;;26.08;12.90;;;7.30;99.90;;;;;;5044881;28;20027;-87
2021/05/20 00:44:55;;;;;;;24.10;12.38;;;7.30;99.90;;;;;;5073739;28;20024;-87
2021/05/20 00:47:23;;;;;;;28.17;14.10;;;7.30;99.90;;;;;;5075190;28;20474;-86
2021/05/20 00:49:49;;;;;;;24.17;12.52;;;7.30;99.90;;;;;;5051506;28;20032;-87
2021/05/20 00:52:15;;;;;;;24.65;13.60;;;7.30;99.90;;;;;;5052947;28;20025;-87
2021/05/20 00:54:41;;;;;;;25.52;12.52;;;7.30;99.90;;;;;;5045783;28;20040;-87
2021/05/20 00:57:08;;;;;;;23.50;11.50;;;7.30;99.90;;;;;;5045921;28;20078;-87
2021/05/20 00:59:33;;;;;;;143.15;15.82;;;7.30;99.90;;;;;;5048013;28;20028;-86
2021/05/20 01:02:00;;;;;;;21.67;12.02;;;7.10;99.90;;;;;;5057458;28;20028;-87
2021/05/20 01:04:35;;;;;;;27.52;12.73;;;7.20;99.90;;;;;;5071993;28;20389;-87
2021/05/20 01:07:01;;;;;;;25.02;12.70;;;7.20;99.90;;;;;;5044324;28;20025;-85
2021/05/20 01:09:27;;;;;;;22.30;10.98;;;8.80;99.90;;;;;;5049912;28;20021;-84
2021/05/20 01:11:52;;;;;;;23.48;11.43;;;6.90;99.90;;;;;;5039026;28;20121;-86
2021/05/20 01:14:18;;;;;;;47.38;12.70;;;7.10;99.90;;;;;;5059804;28;20017;-85
2021/05/20 01:16:46;;;;;;;23.27;11.93;;;7.10;99.90;;;;;;5067203;28;20517;-86
2021/05/20 01:19:12;;;;;;;24.25;12.63;;;7.10;99.90;;;;;;5055622;28;20024;-86
2021/05/20 01:21:40;;;;;;;22.70;11.88;;;10.40;99.90;;;;;;5052521;28;20118;-86
2021/05/20 01:24:06;;;;;;;23.50;12.45;;;7.10;99.90;;;;;;5044283;28;20048;-85
2021/05/20 01:26:36;;;;;;;25.92;12.27;;;7.10;99.90;;;;;;5042362;28;20020;-84
2021/05/20 01:29:03;;;;;;;22.85;11.77;;;7.20;99.90;;;;;;5070512;28;20025;-86
2021/05/20 01:31:28;;;;;;;22.52;12.25;;;7.30;99.90;;;;;;5075586;28;20108;-86
2021/05/20 01:33:54;;;;;;;27.27;13.02;;;8.80;99.90;;;;;;5044209;28;20056;-86
2021/05/20 01:36:30;;;;;;;28.83;14.32;;;7.50;99.90;;;;;;5038022;28;20553;-86
2021/05/20 01:39:00;;;;;;;28.88;14.55;;;7.70;99.90;;;;;;5037912;28;20035;-86
2021/05/20 01:41:26;;;;;;;38.15;16.55;;;7.80;99.90;;;;;;5041959;28;20025;-86
2021/05/20 01:43:52;;;;;;;34.40;16.90;;;7.90;99.90;;;;;;5058630;28;20438;-86
2021/05/20 01:46:18;;;;;;;33.85;15.88;;;7.90;99.90;;;;;;5037374;28;20112;-85
2021/05/20 01:48:45;;;;;;;34.05;15.80;;;8.00;99.90;;;;;;5058485;28;20033;-86
2021/05/20 01:51:13;;;;;;;33.17;15.52;;;8.10;99.90;;;;;;5046947;28;20021;-85
2021/05/20 01:53:44;;;;;;;32.23;17.07;;;8.00;99.90;;;;;;5066139;28;20029;-87
2021/05/20 01:56:13;;;;;;;31.67;17.25;;;8.20;99.90;;;;;;5053686;28;20477;-86
2021/05/20 01:58:38;;;;;;;34.58;17.52;;;8.20;99.90;;;;;;5058419;28;20034;-86
2021/05/20 02:01:05;;;;;;;34.63;16.10;;;8.10;99.90;;;;;;5051704;28;20025;-86
2021/05/20 02:03:31;;;;;;;30.77;16.75;;;8.00;99.90;;;;;;5037156;28;20029;-85
2021/05/20 02:05:58;;;;;;;55.63;17.73;;;8.00;99.90;;;;;;5051850;28;20032;-86
2021/05/20 02:08:27;;;;;;;35.03;15.93;;;8.00;99.90;;;;;;5056432;28;20078;-85
2021/05/20 02:10:52;;;;;;;;;;;7.90;99.90;;;;;;5043682;28;20029;-85
2021/05/20 02:13:18;;;;;;;38.47;16.92;;;7.90;99.90;;;;;;5055465;28;19905;-85
2021/05/20 02:15:43;;;;;;;33.42;16.73;;;7.90;99.90;;;;;;5052356;28;20029;-84
2021/05/20 02:18:09;;;;;;;32.28;16.67;;;7.80;99.90;;;;;;5056066;28;20017;-85
2021/05/20 02:20:35;;;;;;;33.83;17.38;;;7.70;99.90;;;;;;5052666;28;20473;-86
2021/05/20 02:23:01;;;;;;;31.95;17.27;;;7.70;99.90;;;;;;5040414;28;20048;-85
2021/05/20 02:25:27;;;;;;;35.50;17.48;;;7.70;99.90;;;;;;5037860;28;20032;-86
2021/05/20 02:27:52;;;;;;;30.35;16.80;;;7.60;99.90;;;;;;5062579;28;20008;-86
2021/05/20 02:30:22;;;;;;;30.02;16.15;;;7.10;99.90;;;;;;5042975;28;20025;-86
2021/05/20 02:32:48;;;;;;;33.33;16.83;;;8.90;99.90;;;;;;5055711;28;20024;-86
2021/05/20 02:35:14;;;;;;;35.45;17.13;;;6.80;99.90;;;;;;5048506;28;20017;-85
2021/05/20 02:37:40;;;;;;;31.27;16.00;;;7.40;99.90;;;;;;5037038;28;20032;-86
2021/05/20 02:40:08;;;;;;;36.08;17.13;;;6.60;99.90;;;;;;5048385;28;20047;-86
2021/05/20 02:42:34;;;;;;;33.47;16.55;;;7.40;99.90;;;;;;5037352;28;20096;-86
2021/05/20 02:45:00;;;;;;;32.88;16.60;;;6.90;99.90;;;;;;5038545;28;20024;-86
2021/05/20 02:47:26;;;;;;;32.05;17.15;;;10.70;99.90;;;;;;5037750;28;20358;-86
2021/05/20 02:49:51;;;;;;;31.77;16.50;;;7.50;99.90;;;;;;5064500;28;20426;-86
2021/05/20 02:52:17;;;;;;;31.33;17.00;;;7.50;99.90;;;;;;5056844;28;20098;-86
2021/05/20 02:54:43;;;;;;;40.15;17.77;;;7.40;99.90;;;;;;5054994;28;20020;-86
2021/05/20 02:57:08;;;;;;;38.80;19.77;;;7.50;99.90;;;;;;5039986;28;20112;-84
2021/05/20 02:59:38;;;;;;;36.97;17.33;;;7.40;99.90;;;;;;5054402;28;20025;-84
2021/05/20 03:02:06;;;;;;;38.05;17.92;;;8.30;99.90;;;;;;5037266;28;20042;-85
2021/05/20 03:04:35;;;;;;;31.80;17.10;;;7.70;99.90;;;;;;5039070;28;20025;-86
2021/05/20 03:07:03;;;;;;;35.72;18.25;;;9.90;99.90;;;;;;5042456;28;20039;-86
2021/05/20 03:09:28;;;;;;;38.10;17.15;;;7.70;99.90;;;;;;5041845;28;20024;-85
2021/05/20 03:11:57;;;;;;;35.75;16.55;;;7.70;99.90;;;;;;5047982;28;20008;-85
2021/05/20 03:14:23;;;;;;;33.08;16.55;;;7.70;99.90;;;;;;5053317;28;20074;-86
2021/05/20 03:16:49;;;;;;;36.72;17.60;;;7.70;99.90;;;;;;5051580;28;20024;-86
2021/05/20 03:19:15;;;;;;;38.38;17.98;;;7.70;99.90;;;;;;5045202;28;20039;-85
2021/05/20 03:21:41;;;;;;;34.03;17.20;;;7.60;99.90;;;;;;5055459;28;20084;-85
2021/05/20 03:24:07;;;;;;;31.73;16.85;;;7.60;99.90;;;;;;5048244;28;20028;-84
2021/05/20 03:26:33;;;;;;;32.05;16.25;;;7.60;99.90;;;;;;5044643;28;20020;-86
2021/05/20 03:28:59;;;;;;;35.40;16.67;;;7.40;99.90;;;;;;5062907;28;20089;-86
2021/05/20 03:31:25;;;;;;;34.58;17.48;;;7.40;99.90;;;;;;5043982;28;20025;-85
2021/05/20 03:33:50;;;;;;;31.33;15.98;;;7.40;99.90;;;;;;5036605;28;20063;-86
2021/05/20 03:36:16;;;;;;;46.28;17.20;;;7.40;99.90;;;;;;5048556;28;20039;-86
2021/05/20 03:38:42;;;;;;;36.80;17.23;;;7.40;99.90;;;;;;5050944;28;20032;-87
2021/05/20 03:41:07;;;;;;;33.97;17.52;;;7.30;99.90;;;;;;5036730;28;20021;-86
2021/05/20 03:43:34;;;;;;;37.95;18.25;;;7.30;99.90;;;;;;5049091;28;20489;-85
2021/05/20 03:46:00;;;;;;;134.93;21.17;;;9.10;99.90;;;;;;5055038;28;20119;-87
2021/05/20 03:48:25;;;;;;;96.97;19.05;;;7.40;99.90;;;;;;5048321;28;20055;-85
2021/05/20 03:50:51;;;;;;;129.70;19.77;;;7.50;99.90;;;;;;5046128;28;20028;-86
2021/05/20 03:53:17;;;;;;;120.47;21.73;;;7.60;99.90;;;;;;5039393;28;20024;-84
2021/05/20 03:55:43;;;;;;;198.18;21.40;;;7.60;99.90;;;;;;5045396;28;20031;-86
2021/05/20 03:58:09;;;;;;;226.55;24.98;;;7.70;99.90;;;;;;5038936;28;20021;-86
2021/05/20 04:00:34;;;;;;;268.08;25.23;;;7.70;99.90;;;;;;5046448;28;20032;-85
2021/05/20 04:03:00;;;;;;;209.35;24.52;;;7.50;99.90;;;;;;5038461;28;20116;-85
2021/05/20 04:05:27;;;;;;;237.38;26.85;;;7.90;99.90;;;;;;5072618;22;20027;-87
2021/05/20 04:07:56;;;;;;;132.25;21.08;;;7.60;99.90;;;;;;5061230;28;20040;-87
2021/05/20 04:10:24;;;;;;;119.80;22.63;;;7.90;99.90;;;;;;5066855;28;20091;-87
2021/05/20 04:12:52;;;;;;;124.60;24.48;;;11.00;99.90;;;;;;5062288;28;20024;-86
2021/05/20 04:15:18;;;;;;;164.25;23.55;;;8.20;99.90;;;;;;5082284;28;20035;-87
2021/05/20 04:17:43;;;;;;;88.80;21.20;;;8.10;99.90;;;;;;5047498;28;20389;-87
2021/05/20 04:20:10;;;;;;;153.82;23.42;;;7.90;99.90;;;;;;5043516;28;20102;-86
2021/05/20 04:22:35;;;;;;;149.52;23.90;;;8.20;99.90;;;;;;5039317;28;20025;-87
2021/05/20 04:25:01;;;;;;;112.93;23.92;;;8.20;99.90;;;;;;5040591;28;20021;-86
2021/05/20 04:27:27;;;;;;;124.32;22.27;;;8.20;99.90;;;;;;5058478;28;20033;-86
2021/05/20 04:29:52;;;;;;;170.10;24.30;;;8.30;99.90;;;;;;5053601;28;20024;-86
2021/05/20 04:32:18;;;;;;;91.63;21.60;;;8.40;99.90;;;;;;5053424;28;20035;-87
2021/05/20 04:34:44;;;;;;;73.60;22.20;;;8.40;99.90;;;;;;5063669;28;20044;-86
2021/05/20 04:37:10;;;;;;;72.10;22.77;;;8.50;99.90;;;;;;5039656;28;20033;-87
2021/05/20 04:39:36;;;;;;;101.82;22.75;;;8.60;99.90;;;;;;5040024;28;20065;-87
2021/05/20 04:42:03;;;;;;;90.65;22.48;;;8.60;99.90;;;;;;5046243;28;20017;-87
2021/05/20 04:44:28;;;;;;;121.47;21.50;;;8.60;99.90;;;;;;5049888;28;20024;-87
2021/05/20 04:46:54;;;;;;;82.00;21.08;;;8.50;99.90;;;;;;5059178;28;20035;-87
2021/05/20 04:49:20;;;;;;;141.82;23.73;;;8.50;99.90;;;;;;5050060;28;20013;-87
2021/05/20 04:51:46;;;;;;;71.28;20.95;;;8.80;99.90;;;;;;5046233;28;20029;-87
2021/05/20 04:54:11;;;;;;;82.47;21.40;;;9.60;99.90;;;;;;5073698;28;20012;-86
2021/05/20 04:56:37;;;;;;;74.65;20.20;;;8.80;99.90;;;;;;5050077;28;20440;-87
2021/05/20 04:59:03;;;;;;;74.07;21.55;;;8.80;99.90;;;;;;5044919;28;20023;-86
2021/05/20 05:01:29;;;;;;;100.72;20.10;;;9.10;99.90;;;;;;5059388;28;20384;-86
2021/05/20 05:03:56;;;;;;;72.30;20.67;;;9.20;99.90;;;;;;5048397;28;20028;-86
2021/05/20 05:06:22;;;;;;;70.55;19.35;;;9.20;99.90;;;;;;5047507;28;20056;-87
2021/05/20 05:08:47;;;;;;;91.45;18.67;;;9.20;99.90;;;;;;5072041;28;20017;-87
2021/05/20 05:11:13;;;;;;;76.38;14.15;;;9.20;99.90;;;;;;5071168;28;20029;-87
2021/05/20 05:13:38;;;;;;;88.32;16.17;;;9.30;99.90;;;;;;5058093;28;20366;-87
2021/05/20 05:16:07;;;;;;;68.90;16.65;;;9.40;99.90;;;;;;5065731;28;20386;-87
2021/05/20 05:18:33;;;;;;;90.35;18.55;;;9.60;99.90;;;;;;5046325;28;20040;-87
2021/05/20 05:20:58;;;;;;;71.25;18.30;;;9.30;99.90;;;;;;5056059;28;20390;-86
2021/05/20 05:23:24;;;;;;;86.07;18.33;;;11.90;99.90;;;;;;5040982;28;20070;-87
2021/05/20 05:25:50;;;;;;;117.78;17.23;;;9.40;99.90;;;;;;5042986;28;20032;-86
2021/05/20 05:28:16;;;;;;;84.00;16.98;;;12.30;99.90;;;;;;5052084;28;20024;-87
2021/05/20 05:30:43;;;;;;;76.68;16.27;;;12.90;99.90;;;;;;5055281;28;20021;-87
2021/05/20 05:33:09;;;;;;;78.70;18.50;;;9.50;99.90;;;;;;5037863;28;20525;-87
2021/05/20 05:35:34;;;;;;;71.40;15.00;;;9.60;99.90;;;;;;5038413;28;20123;-86
2021/05/20 05:38:00;;;;;;;94.28;16.35;;;9.60;99.90;;;;;;5046625;28;20432;-86
2021/05/20 05:40:26;;;;;;;65.78;13.52;;;9.80;99.90;;;;;;5049085;28;20383;-86
2021/05/20 05:42:51;;;;;;;60.28;13.68;;;9.80;99.90;;;;;;5045036;28;20101;-86
2021/05/20 05:45:17;;;;;;;72.93;14.25;;;9.60;99.90;;;;;;5038873;28;20533;-86
2021/05/20 05:47:42;;;;;;;87.50;13.95;;;9.70;99.90;;;;;;5057048;28;20043;-87
2021/05/20 05:50:13;;;;;;;55.35;11.90;;;12.90;99.90;;;;;;5057336;28;20389;-87
2021/05/20 05:52:39;;;;;;;56.65;12.88;;;9.80;99.90;;;;;;5057205;28;20025;-85
2021/05/20 05:55:06;;;;;;;63.97;14.40;;;9.80;99.90;;;;;;5058054;28;20521;-86
2021/05/20 05:57:32;;;;;;;54.67;13.30;;;9.90;99.90;;;;;;5053194;28;20029;-85
2021/05/20 05:59:57;;;;;;;92.68;15.43;;;9.90;99.90;;;;;;5067085;28;20032;-86
2021/05/20 06:02:24;;;;;;;52.70;13.95;;;10.00;99.90;;;;;;5076215;28;20024;-85
2021/05/20 06:04:52;;;;;;;47.70;16.65;;;10.10;99.90;;;;;;5053343;28;20111;-85
2021/05/20 06:07:18;;;;;;;53.97;16.25;;;10.10;99.90;;;;;;5037466;28;20120;-84
2021/05/20 06:09:45;;;;;;;57.58;15.57;;;10.20;99.90;;;;;;5037996;28;20466;-84
2021/05/20 06:12:12;;;;;;;43.78;15.50;;;10.20;99.90;;;;;;5037520;28;20032;-85
2021/05/20 06:14:40;;;;;;;39.63;15.25;;;10.20;99.90;;;;;;5045485;28;20032;-85
2021/05/20 06:17:07;;;;;;;40.92;14.32;;;10.30;99.90;;;;;;5037524;28;20021;-85
2021/05/20 06:19:32;;;;;;;36.03;14.38;;;10.40;99.90;;;;;;5037836;28;20028;-83
2021/05/20 06:21:58;;;;;;;42.42;15.35;;;10.40;99.90;;;;;;5055268;28;20529;-85
2021/05/20 06:24:24;;;;;;;43.83;15.60;;;10.60;99.90;;;;;;5037153;28;20371;-84
2021/05/20 06:26:49;;;;;;;46.28;15.52;;;10.70;99.90;;;;;;5037999;28;20021;-84
2021/05/20 06:29:15;;;;;;;49.80;16.80;;;10.80;99.90;;;;;;5037890;28;20059;-85
2021/05/20 06:31:40;;;;;;;41.88;15.63;;;10.90;99.90;;;;;;5055155;28;20105;-84
2021/05/20 06:34:06;;;;;;;41.65;14.80;;;10.90;99.90;;;;;;5037970;28;20017;-84
2021/05/20 06:36:32;;;;;;;37.30;13.95;;;11.00;99.90;;;;;;5056127;28;20029;-84
2021/05/20 06:38:58;;;;;;;36.92;14.40;;;11.10;99.90;;;;;;5055603;28;20025;-84
2021/05/20 06:41:23;;;;;;;32.58;13.13;;;12.10;99.90;;;;;;5055688;28;20036;-84
2021/05/20 06:43:49;;;;;;;36.17;14.75;;;11.20;99.90;;;;;;5038175;28;20028;-84
2021/05/20 06:46:15;;;;;;;34.00;15.00;;;11.20;99.90;;;;;;5038521;28;20021;-84
2021/05/20 06:48:41;;;;;;;35.42;13.90;;;11.30;99.90;;;;;;5056504;28;20021;-85
2021/05/20 06:51:07;;;;;;;39.60;16.80;;;11.30;99.90;;;;;;5057019;28;20099;-85
2021/05/20 06:53:35;;;;;;;34.90;15.43;;;11.50;99.90;;;;;;5039844;28;20017;-85
2021/05/20 06:56:01;;;;;;;40.33;17.58;;;11.60;99.90;;;;;;5038385;28;20429;-84
2021/05/20 07:01:10;;;;;;;38.45;15.02;;;11.40;99.90;;;;;;5058524;28;20040;-85
2021/05/20 07:03:36;;;;;;;47.53;15.77;;;11.40;99.90;;;;;;5056771;28;20020;-84
2021/05/20 07:06:02;;;;;;;29.00;12.57;;;11.40;99.90;;;;;;5038164;28;20020;-84
2021/05/20 07:08:28;;;;;;;35.90;14.68;;;11.40;99.90;;;;;;5039090;28;20420;-85
2021/05/20 07:10:55;;;;;;;33.40;14.15;;;11.50;99.90;;;;;;5039045;28;20099;-85
2021/05/20 07:13:21;;;;;;;36.38;15.50;;;11.60;99.90;;;;;;5056980;28;20050;-85
2021/05/20 07:15:48;;;;;;;38.13;16.38;;;11.60;99.90;;;;;;5057418;28;20108;-84
2021/05/20 07:18:14;;;;;;;41.58;16.33;;;11.80;99.90;;;;;;5040471;28;20024;-85
2021/05/20 07:20:40;;;;;;;35.65;15.25;;;12.10;99.90;;;;;;5040096;28;20021;-85
2021/05/20 07:23:14;;;;;;;29.15;13.30;;;14.40;99.90;;;;;;5058522;28;20033;-84
2021/05/20 07:25:40;;;;;;;28.17;12.65;;;12.50;99.90;;;;;;5041258;28;20385;-84
2021/05/20 07:28:06;;;;;;;25.65;12.30;;;14.30;99.90;;;;;;5042999;28;20021;-85
2021/05/20 07:30:32;;;;;;;29.35;12.95;;;12.80;99.90;;;;;;5048412;28;20017;-84
2021/05/20 07:32:58;;;;;;;31.00;14.30;;;12.80;99.90;;;;;;5052229;28;20025;-84
2021/05/20 07:35:24;;;;;;;28.10;14.38;;;12.80;99.90;;;;;;5047326;28;20032;-85
2021/05/20 07:37:50;;;;;;;30.23;13.43;;;12.80;99.90;;;;;;5046652;28;20047;-84
2021/05/20 07:40:18;;;;;;;28.40;14.68;;;12.80;99.90;;;;;;5068865;28;20021;-84
2021/05/20 07:42:43;;;;;;;33.55;15.35;;;12.70;99.90;;;;;;5042822;28;20078;-84
2021/05/20 07:45:11;;;;;;;34.95;14.63;;;12.60;99.90;;;;;;5063002;28;20032;-84
2021/05/20 07:47:37;;;;;;;38.65;17.52;;;12.50;99.90;;;;;;5044852;28;20021;-84
2021/05/20 07:50:04;;;;;;;40.83;17.38;;;12.60;99.90;;;;;;5066876;28;20091;-84
2021/05/20 07:52:29;;;;;;;39.30;17.40;;;12.60;99.90;;;;;;5050359;28;20024;-84
2021/05/20 07:54:56;;;;;;;35.42;15.40;;;12.60;99.90;;;;;;5052913;28;20041;-84
2021/05/20 07:57:22;;;;;;;31.55;14.60;;;15.60;99.90;;;;;;5052330;28;20067;-84
2021/05/20 07:59:47;;;;;;;36.15;16.05;;;12.50;99.90;;;;;;5070229;28;20029;-84
2021/05/20 08:04:40;;;;;;;38.00;15.13;;;12.60;99.90;;;;;;5071596;28;20541;-85
2021/05/20 08:07:32;;;;;;;35.55;15.90;;;12.70;99.90;;;;;;5053710;28;20029;-83
2021/05/20 08:12:36;;;;;;;36.47;16.02;;;12.60;99.90;;;;;;5070689;28;20085;-84
2021/05/20 08:15:03;;;;;;;34.80;15.05;;;12.60;99.90;;;;;;5053039;28;20029;-84
2021/05/20 08:17:28;;;;;;;37.25;16.02;;;12.70;99.90;;;;;;5051441;28;20112;-84
2021/05/20 08:19:54;;;;;;;37.05;16.60;;;12.90;99.90;;;;;;5067618;28;20032;-85
2021/05/20 08:22:19;;;;;;;42.53;17.33;;;12.90;99.90;;;;;;5047972;28;20024;-84
2021/05/20 08:24:45;;;;;;;45.35;19.00;;;12.80;99.90;;;;;;5047724;28;20046;-85
2021/05/20 08:27:11;;;;;;;41.78;17.58;;;12.80;99.90;;;;;;5046450;28;20094;-85
2021/05/20 08:29:38;;;;;;;37.88;16.98;;;12.70;99.90;;;;;;5045517;28;20040;-83
2021/05/20 08:32:04;;;;;;;41.33;19.98;;;12.80;99.90;;;;;;5045899;28;20020;-85
2021/05/20 08:34:30;;;;;;;40.58;19.45;;;12.50;99.90;;;;;;5051015;28;20021;-86
2021/05/20 08:36:56;;;;;;;42.72;19.58;;;12.90;99.90;;;;;;5045498;28;20025;-86
2021/05/20 08:39:21;;;;;;;38.50;19.20;;;14.20;99.90;;;;;;5046540;28;20044;-84
2021/05/20 08:41:53;;;;;;;41.22;20.48;;;14.30;99.90;;;;;;5046195;28;20021;-85
2021/05/20 08:44:19;;;;;;;39.00;20.20;;;13.80;99.90;;;;;;5044599;28;20025;-85
2021/05/20 08:46:48;;;;;;;41.83;20.27;;;15.10;99.90;;;;;;5044201;28;20045;-86
2021/05/20 08:49:14;;;;;;;35.67;18.42;;;14.20;99.90;;;;;;5046154;28;20052;-85
2021/05/20 08:51:44;;;;;;;37.22;19.77;;;14.40;99.90;;;;;;5043193;28;20013;-85
2021/05/20 08:54:10;;;;;;;34.92;19.00;;;14.60;99.90;;;;;;5044456;28;20497;-85
2021/05/20 08:56:36;;;;;;;30.27;16.33;;;14.90;99.90;;;;;;5044232;28;20028;-85
2021/05/20 08:59:02;;;;;;;30.48;15.15;;;15.10;99.90;;;;;;5050261;28;20088;-84
2021/05/20 09:01:36;;;;;;;23.63;13.48;;;15.30;99.90;;;;;;5048271;28;20025;-85
2021/05/20 09:04:02;;;;;;;21.77;13.32;;;15.40;99.90;;;;;;5045716;28;20029;-85
2021/05/20 09:06:35;;;;;;;24.02;14.32;;;15.50;99.90;;;;;;5046320;28;20143;-85
2021/05/20 09:09:00;;;;;;;23.20;13.55;;;15.50;99.90;;;;;;5063543;28;20067;-85
2021/05/20 09:11:26;;;;;;;22.33;14.18;;;16.40;99.90;;;;;;5061746;28;20025;-85
2021/05/20 09:13:52;;;;;;;26.20;14.80;;;15.40;99.90;;;;;;5046329;28;20544;-85
2021/05/20 09:16:17;;;;;;;23.63;14.32;;;15.50;99.90;;;;;;5045149;28;20025;-86
2021/05/20 09:18:43;;;;;;;23.25;14.07;;;15.50;99.90;;;;;;5045221;28;20478;-84
2021/05/20 09:21:09;;;;;;;19.05;10.85;;;15.50;99.90;;;;;;5066289;28;20479;-83
2021/05/20 09:23:49;;;;;;;17.08;10.27;;;15.30;99.90;;;;;;5050771;28;20052;-86
2021/05/20 09:26:15;;;;;;;18.45;9.77;;;15.10;99.90;;;;;;5050824;28;20025;-84
2021/05/20 09:28:47;;;;;;;16.80;10.70;;;15.10;99.90;;;;;;5068521;28;20055;-84
2021/05/20 09:31:35;;;;;;;17.35;10.27;;;14.80;99.90;;;;;;5045610;28;20021;-84
2021/05/20 09:34:13;;;;;;;17.38;9.82;;;15.20;99.90;;;;;;5029623;28;20028;-85
2021/05/20 09:36:47;;;;;;;17.05;9.02;;;15.80;99.90;;;;;;5063300;28;20478;-87
2021/05/20 09:39:14;;;;;;;18.98;9.73;;;16.00;99.90;;;;;;5044177;28;20053;-86
2021/05/20 09:41:40;;;;;;;15.13;8.38;;;16.00;99.90;;;;;;5062694;28;20090;-87
2021/05/20 09:44:29;;;;;;;15.77;7.32;;;15.80;99.90;;;;;;5042524;28;20021;-84
2021/05/20 09:46:56;;;;;;;12.07;6.82;;;15.90;98.70;;;;;;5044659;28;20111;-84
2021/05/20 09:49:25;;;;;;;13.85;6.93;;;15.70;99.70;;;;;;5042346;28;20484;-85
2021/05/20 09:52:20;;;;;;;14.90;7.32;;;15.80;97.50;;;;;;5046049;28;20024;-85
2021/05/20 09:54:46;;;;;;;16.52;8.82;;;15.80;99.30;;;;;;5060963;28;20021;-85
2021/05/20 09:57:35;;;;;;;16.55;8.35;;;17.40;99.90;;;;;;5060164;28;20021;-85
2021/05/20 10:00:24;;;;;;;16.77;9.10;;;16.40;99.30;;;;;;5059133;28;20021;-85
2021/05/20 10:03:02;;;;;;;13.30;6.68;;;16.40;96.30;;;;;;5045396;28;20035;-85
2021/05/20 10:05:38;;;;;;;14.65;7.47;;;16.60;96.30;;;;;;5041294;28;20381;-84
2021/05/20 10:08:08;;;;;;;11.30;6.35;;;16.60;93.70;;;;;;5042489;28;20021;-85
2021/05/20 10:10:37;;;;;;;10.98;6.25;;;16.80;95.90;;;;;;5044131;28;20048;-85
2021/05/20 10:13:04;;;;;;;10.77;5.70;;;17.70;95.70;;;;;;5043599;28;20021;-84
2021/05/20 10:15:31;;;;;;;11.13;6.25;;;16.70;91.70;;;;;;5043622;28;20047;-84
2021/05/20 10:18:01;;;;;;;9.32;5.63;;;16.90;93.50;;;;;;5045245;28;20070;-83
2021/05/20 10:20:27;;;;;;;12.38;7.10;;;17.00;94.20;;;;;;5042752;28;20052;-84
2021/05/20 10:22:52;;;;;;;13.07;7.20;;;19.60;96.60;;;;;;5060724;28;20017;-85
2021/05/20 10:25:18;;;;;;;15.98;9.10;;;19.20;92.70;;;;;;5060586;28;20474;-88
2021/05/20 10:27:45;;;;;;;18.88;8.20;;;17.30;93.50;;;;;;5059902;28;20029;-87
2021/05/20 10:30:13;;;;;;;12.65;8.23;;;17.30;92.70;;;;;;5059831;28;20108;-87
2021/05/20 10:32:40;;;;;;;15.57;9.15;;;17.70;91.50;;;;;;5041991;28;20017;-86
2021/05/20 10:35:14;;;;;;;19.17;10.73;;;17.80;91.10;;;;;;5043436;28;20017;-84
2021/05/20 10:37:40;;;;;;;17.90;8.85;;;18.00;89.40;;;;;;5063142;28;20128;-84
2021/05/20 10:40:11;;;;;;;17.42;9.80;;;18.10;90.30;;;;;;5046177;28;20112;-87
2021/05/20 10:42:43;;;;;;;19.35;9.77;;;18.40;88.10;;;;;;5042699;28;20028;-87
2021/05/20 10:45:21;;;;;;;16.67;9.45;;;18.40;83.40;;;;;;5045189;28;20048;-84
2021/05/20 10:48:02;;;;;;;15.93;8.82;;;18.50;81.90;;;;;;5044202;28;20029;-85
2021/05/20 10:50:56;;;;;;;16.17;7.38;;;18.80;83.20;;;;;;5045350;28;20036;-84
2021/05/20 10:53:41;;;;;;;12.27;6.95;;;18.80;75.30;;;;;;5043112;28;20120;-85
2021/05/20 10:56:08;;;;;;;14.02;7.78;;;18.80;77.10;;;;;;5046048;28;20029;-84
2021/05/20 10:58:38;;;;;;;14.00;8.32;;;18.90;79.80;;;;;;5047216;28;20021;-84
2021/05/20 11:01:04;;;;;;;12.00;6.97;;;19.20;80.00;;;;;;5044991;28;20025;-88
2021/05/20 11:03:57;;;;;;;14.32;6.93;;;19.10;73.60;;;;;;5059589;28;20021;-86
2021/05/20 11:06:37;;;;;;;11.68;6.95;;;18.90;71.40;;;;;;5061294;28;20486;-85
2021/05/20 11:09:04;;;;;;;13.93;7.28;;;18.80;69.60;;;;;;5040142;28;20021;-87
2021/05/20 11:11:30;;;;;;;13.32;6.55;;;18.70;68.10;;;;;;5040383;28;20056;-85
2021/05/20 11:14:19;;;;;;;8.75;4.93;;;18.80;68.50;;;;;;5040573;28;20025;-87
2021/05/20 11:16:45;;;;;;;10.10;5.40;;;18.90;63.40;;;;;;5040986;28;20033;-84
2021/05/20 11:22:04;;;;;;;11.13;5.72;;;18.70;67.80;;;;;;5062388;28;20056;-85
2021/05/20 11:24:31;;;;;;;9.15;4.00;;;18.40;65.00;;;;;;5042534;28;20497;-85
2021/05/20 11:27:04;;;;;;;9.63;4.80;;;18.30;63.60;;;;;;5043106;28;20032;-84
2021/05/20 11:29:32;;;;;;;10.55;4.40;;;19.80;66.90;;;;;;5045827;28;20447;-84
2021/05/20 11:32:11;;;;;;;14.15;6.07;;;18.00;68.10;;;;;;5061336;28;20027;-86
2021/05/20 11:37:04;;;;;;;10.35;5.28;;;18.00;68.50;;;;;;5060152;28;20025;-84
2021/05/20 11:39:29;;;;;;;15.27;6.82;;;17.80;66.90;;;;;;5063137;28;20036;-84
2021/05/20 11:41:57;;;;;;;12.60;6.10;;;17.40;68.40;;;;;;5044753;28;20079;-84
2021/05/20 11:44:27;;;;;;;14.30;6.93;;;17.60;71.90;;;;;;5041941;28;20059;-84
2021/05/20 11:47:07;;;;;;;15.68;7.28;;;19.40;70.70;;;;;;5041884;28;20028;-84
2021/05/20 11:49:34;;;;;;;12.77;6.22;;;17.70;69.40;;;;;;5058967;28;20013;-87
2021/05/20 11:52:03;;;;;;;12.45;6.90;;;17.70;69.70;;;;;;5060336;28;20032;-86
2021/05/20 11:54:34;;;;;;;18.17;7.38;;;18.90;71.30;;;;;;5040392;28;20025;-86
2021/05/20 11:57:03;;;;;;;14.93;7.43;;;17.60;71.20;;;;;;5057517;28;20029;-87
2021/05/20 11:59:32;;;;;;;16.60;8.18;;;17.50;69.30;;;;;;5040025;28;20390;-88
2021/05/20 12:01:57;;;;;;;14.02;7.57;;;20.60;70.10;;;;;;5040042;28;20033;-87
2021/05/20 12:04:27;;;;;;;15.15;8.48;;;19.30;72.50;;;;;;5058872;28;20028;-88
2021/05/20 12:06:53;;;;;;;17.55;8.48;;;21.50;72.20;;;;;;5039615;28;20029;-86
2021/05/20 12:09:20;;;;;;;16.73;8.32;;;18.20;71.00;;;;;;5057490;28;20030;-87
2021/05/20 12:11:46;;;;;;;17.95;8.95;;;18.50;67.20;;;;;;5057983;28;20382;-85
2021/05/20 12:14:39;;;;;;;15.52;8.68;;;20.10;68.80;;;;;;5059976;28;20036;-86
2021/05/20 12:17:13;;;;;;;15.88;8.15;;;19.60;69.10;;;;;;5056637;28;20037;-87
2021/05/20 12:19:51;;;;;;;19.42;9.45;;;18.80;66.70;;;;;;5058122;28;20374;-87
2021/05/20 12:22:28;;;;;;;14.90;9.02;;;18.70;65.40;;;;;;5057453;28;20025;-87
2021/05/20 12:24:54;;;;;;;17.38;9.32;;;18.50;68.20;;;;;;5039544;28;20021;-87
2021/05/20 12:27:45;;;;;;;18.65;9.40;;;18.40;71.40;;;;;;5040175;28;20021;-86
2021/05/20 12:30:24;;;;;;;14.20;7.95;;;18.50;70.40;;;;;;5059942;28;20021;-86
2021/05/20 12:33:07;;;;;;;14.43;8.45;;;18.70;70.90;;;;;;5044090;28;20017;-87
2021/05/20 12:35:37;;;;;;;15.45;7.88;;;18.80;67.50;;;;;;5043248;28;20040;-86
2021/05/20 12:38:11;;;;;;;14.38;8.98;;;18.80;67.90;;;;;;5042451;28;20021;-87
2021/05/20 12:40:54;;;;;;;14.00;8.43;;;18.70;66.90;;;;;;5043143;28;20051;-87
2021/05/20 12:43:21;;;;;;;13.07;7.13;;;18.40;66.70;;;;;;5043091;28;20052;-87
2021/05/20 12:46:06;;;;;;;9.77;6.90;;;18.20;68.60;;;;;;5044212;28;20094;-87
2021/05/20 12:48:43;;;;;;;8.73;5.32;;;19.30;69.60;;;;;;5061124;28;20014;-87
2021/05/20 12:51:18;;;;;;;9.02;5.18;;;17.70;67.50;;;;;;5050058;28;20025;-87